Time;durP1;ratioP1;P1;durP2;ratioP2;P2;SDS_P1;SDS_P2;PMS_P1;PMS_P2;Temp;Humidity;BMP_temperature;BMP_pressure;BME280_temperature;BME280_humidity;BME280_pressure;Samples;Min_cycle;Max_cycle;Signal;HPM_P1;HPM_P2
2021/08/17 00:00:56;;;;;;;24.10;7.45;;;;;;;;;;4994650;28;20028;-43
2021/08/17 00:03:23;;;;;;;19.20;7.72;;;;;;;;;;4994626;28;20038;-43
2021/08/17 00:05:49;;;;;;;17.35;7.90;;;;;;;;;;4994683;28;20035;-42
2021/08/17 00:08:15;;;;;;;19.02;7.57;;;;;;;;;;4994639;28;20049;-42
2021/08/17 00:10:42;;;;;;;15.63;7.30;;;;;;;;;;4994251;28;20499;-42
2021/08/17 00:13:08;;;;;;;21.35;7.78;;;;;;;;;;4994591;28;20030;-42
2021/08/17 00:15:37;;;;;;;20.95;7.32;;;;;;;;;;4994582;28;20391;-42
2021/08/17 00:18:03;;;;;;;18.45;7.50;;;;;;;;;;4994485;28;20053;-41
2021/08/17 00:20:29;;;;;;;13.93;7.68;;;;;;;;;;4994354;28;20069;-42
2021/08/17 00:22:55;;;;;;;21.45;9.00;;;;;;;;;;4994449;28;20069;-42
2021/08/17 00:25:21;;;;;;;25.38;11.07;;;;;;;;;;4994303;28;20026;-43
2021/08/17 00:27:48;;;;;;;27.00;11.40;;;;;;;;;;4994366;28;20027;-42
2021/08/17 00:30:14;;;;;;;36.97;18.20;;;;;;;;;;4994288;28;20030;-42
2021/08/17 00:32:40;;;;;;;21.10;9.75;;;;;;;;;;4994140;28;20034;-42
2021/08/17 00:35:06;;;;;;;20.58;11.55;;;;;;;;;;4994172;28;20026;-41
2021/08/17 00:37:33;;;;;;;18.55;8.00;;;;;;;;;;4992501;28;20501;-42
2021/08/17 00:40:01;;;;;;;16.05;7.88;;;;;;;;;;4994410;28;20026;-43
2021/08/17 00:42:33;;;;;;;18.05;7.90;;;;;;;;;;4994182;28;20027;-44
2021/08/17 00:45:02;;;;;;;15.73;7.55;;;;;;;;;;4994149;28;20027;-45
2021/08/17 00:47:28;;;;;;;18.27;7.25;;;;;;;;;;4994066;28;20023;-44
2021/08/17 00:49:54;;;;;;;26.10;7.95;;;;;;;;;;4994020;28;20113;-42
2021/08/17 00:52:20;;;;;;;9.60;6.07;;;;;;;;;;4994048;28;20042;-43
2021/08/17 00:54:46;;;;;;;12.43;6.72;;;;;;;;;;4994009;28;20038;-44
2021/08/17 00:57:12;;;;;;;39.65;9.75;;;;;;;;;;4994046;28;20105;-43
2021/08/17 00:59:39;;;;;;;19.02;7.20;;;;;;;;;;4993940;28;20027;-44
2021/08/17 01:02:05;;;;;;;26.95;7.70;;;;;;;;;;4993878;28;20503;-43
2021/08/17 01:04:33;;;;;;;28.52;14.52;;;;;;;;;;4993981;28;20027;-41
2021/08/17 01:07:01;;;;;;;21.05;11.45;;;;;;;;;;4993946;28;20107;-42
2021/08/17 01:09:27;;;;;;;15.23;8.07;;;;;;;;;;4993442;28;20047;-44
2021/08/17 01:11:53;;;;;;;18.27;7.70;;;;;;;;;;4993743;28;20089;-42
2021/08/17 01:14:20;;;;;;;20.98;9.40;;;;;;;;;;4993870;28;20141;-44
2021/08/17 01:16:46;;;;;;;16.98;7.45;;;;;;;;;;4993709;28;20026;-47
2021/08/17 01:19:13;;;;;;;19.70;6.50;;;;;;;;;;4993827;28;20101;-43
2021/08/17 01:21:42;;;;;;;17.70;7.05;;;;;;;;;;4993633;28;20497;-47
2021/08/17 01:24:08;;;;;;;20.55;5.82;;;;;;;;;;4993680;28;20033;-45
2021/08/17 01:26:35;;;;;;;14.32;6.80;;;;;;;;;;4993859;28;20030;-44
2021/08/17 01:29:01;;;;;;;16.98;6.90;;;;;;;;;;4993682;28;20110;-40
2021/08/17 01:31:27;;;;;;;15.85;6.88;;;;;;;;;;4993614;28;20117;-44
2021/08/17 01:33:54;;;;;;;13.90;6.68;;;;;;;;;;4993619;28;20027;-43
2021/08/17 01:36:20;;;;;;;15.45;6.93;;;;;;;;;;4993757;28;20026;-45
2021/08/17 01:38:47;;;;;;;15.20;6.43;;;;;;;;;;4993684;28;20049;-44
2021/08/17 01:41:13;;;;;;;22.27;6.97;;;;;;;;;;4993778;28;20395;-46
2021/08/17 01:43:39;;;;;;;16.67;6.32;;;;;;;;;;4993568;28;20026;-41
2021/08/17 01:46:05;;;;;;;23.15;5.38;;;;;;;;;;4993685;28;20462;-44
2021/08/17 01:48:32;;;;;;;21.15;4.15;;;;;;;;;;4993604;28;20109;-44
2021/08/17 01:50:59;;;;;;;52.50;18.92;;;;;;;;;;4996467;28;20453;-44
2021/08/17 01:53:26;;;;;;;36.80;17.92;;;;;;;;;;4997094;28;20034;-44
2021/08/17 01:55:53;;;;;;;31.10;5.82;;;;;;;;;;4997354;28;20121;-45
2021/08/17 01:58:24;;;;;;;14.32;3.92;;;;;;;;;;4997080;28;20066;-42
2021/08/17 02:00:53;;;;;;;28.02;4.70;;;;;;;;;;4997135;28;20391;-41
2021/08/17 02:03:19;;;;;;;13.15;3.58;;;;;;;;;;4996990;28;20150;-46
2021/08/17 02:05:45;;;;;;;34.30;3.67;;;;;;;;;;4996979;28;20557;-44
2021/08/17 02:08:14;;;;;;;24.17;3.88;;;;;;;;;;4996806;28;20026;-44
2021/08/17 02:10:42;;;;;;;11.38;2.90;;;;;;;;;;4996736;28;20510;-44
2021/08/17 02:13:08;;;;;;;11.48;2.90;;;;;;;;;;4997148;28;20034;-47
2021/08/17 02:15:35;;;;;;;15.88;2.67;;;;;;;;;;4996905;28;20100;-48
2021/08/17 02:18:01;;;;;;;21.02;3.05;;;;;;;;;;4996721;28;20034;-42
2021/08/17 02:20:27;;;;;;;16.33;2.90;;;;;;;;;;4996726;28;20022;-43
2021/08/17 02:22:53;;;;;;;9.75;2.78;;;;;;;;;;4996576;28;20030;-44
2021/08/17 02:25:19;;;;;;;16.30;3.40;;;;;;;;;;4996932;28;20125;-45
2021/08/17 02:27:45;;;;;;;14.98;2.60;;;;;;;;;;4996552;28;20088;-42
2021/08/17 02:30:12;;;;;;;19.73;3.10;;;;;;;;;;4996486;28;20030;-47
2021/08/17 02:32:38;;;;;;;18.77;3.58;;;;;;;;;;4996413;28;20077;-46
2021/08/17 02:35:04;;;;;;;7.90;2.50;;;;;;;;;;4996284;28;20019;-51
2021/08/17 02:37:30;;;;;;;7.57;2.20;;;;;;;;;;4996342;28;20386;-45
2021/08/17 02:39:56;;;;;;;9.15;2.13;;;;;;;;;;4996333;28;20110;-44
2021/08/17 02:42:25;;;;;;;11.32;2.30;;;;;;;;;;4996584;28;20033;-46
2021/08/17 02:44:51;;;;;;;10.85;2.28;;;;;;;;;;4996446;28;20014;-46
2021/08/17 02:47:17;;;;;;;12.73;2.30;;;;;;;;;;4996349;28;20026;-44
2021/08/17 02:49:43;;;;;;;5.18;2.00;;;;;;;;;;4996248;28;20026;-48
2021/08/17 02:52:09;;;;;;;15.02;2.20;;;;;;;;;;4996205;28;20066;-48
2021/08/17 02:54:36;;;;;;;12.77;2.30;;;;;;;;;;4996085;28;20030;-45
2021/08/17 02:57:03;;;;;;;8.65;2.13;;;;;;;;;;4996145;28;20105;-46
2021/08/17 02:59:29;;;;;;;9.68;2.05;;;;;;;;;;4996152;28;20018;-49
2021/08/17 03:01:55;;;;;;;5.20;1.90;;;;;;;;;;4996002;28;20030;-47
2021/08/17 03:04:24;;;;;;;7.82;1.90;;;;;;;;;;4995924;28;20471;-46
2021/08/17 03:06:50;;;;;;;7.30;1.88;;;;;;;;;;4995943;28;20049;-48
2021/08/17 03:09:16;;;;;;;7.43;2.10;;;;;;;;;;4995570;28;20380;-46
2021/08/17 03:11:42;;;;;;;4.45;2.10;;;;;;;;;;4995906;28;20030;-49
2021/08/17 03:14:08;;;;;;;15.43;2.38;;;;;;;;;;4995811;28;20030;-50
2021/08/17 03:16:35;;;;;;;3.50;2.05;;;;;;;;;;4995660;28;20106;-47
2021/08/17 03:19:02;;;;;;;7.50;2.20;;;;;;;;;;4995705;28;20069;-47
2021/08/17 03:21:28;;;;;;;6.95;2.13;;;;;;;;;;4995783;28;20023;-47
2021/08/17 03:23:54;;;;;;;3.67;1.92;;;;;;;;;;4995407;28;20106;-50
2021/08/17 03:26:20;;;;;;;8.68;2.38;;;;;;;;;;4995651;28;20066;-47
2021/08/17 03:28:46;;;;;;;7.28;2.20;;;;;;;;;;4995714;28;20085;-46
2021/08/17 03:31:15;;;;;;;6.28;2.42;;;;;;;;;;4995445;28;20030;-45
2021/08/17 03:33:41;;;;;;;4.07;2.40;;;;;;;;;;4995669;28;20026;-45
2021/08/17 03:36:07;;;;;;;8.52;2.20;;;;;;;;;;4995291;28;20018;-46
2021/08/17 03:38:36;;;;;;;4.72;2.22;;;;;;;;;;4995111;28;20026;-47
2021/08/17 03:41:03;;;;;;;9.23;2.30;;;;;;;;;;4995290;28;20030;-45
2021/08/17 03:43:29;;;;;;;4.65;2.20;;;;;;;;;;4995254;28;20026;-41
2021/08/17 03:45:56;;;;;;;12.13;2.75;;;;;;;;;;4995336;28;20022;-42
2021/08/17 03:48:22;;;;;;;8.32;2.55;;;;;;;;;;4995082;28;20027;-43
2021/08/17 03:50:48;;;;;;;10.45;2.78;;;;;;;;;;4994992;28;20101;-41
2021/08/17 03:53:15;;;;;;;15.55;2.95;;;;;;;;;;4995000;28;20431;-46
2021/08/17 03:55:41;;;;;;;10.02;2.67;;;;;;;;;;4994960;28;20054;-44
2021/08/17 03:58:07;;;;;;;8.93;2.75;;;;;;;;;;4995108;28;20045;-42
2021/08/17 04:00:33;;;;;;;8.73;2.72;;;;;;;;;;4994948;28;20554;-42
2021/08/17 04:03:00;;;;;;;6.85;2.63;;;;;;;;;;4994885;28;20513;-41
2021/08/17 04:05:26;;;;;;;8.10;2.45;;;;;;;;;;4994871;28;20050;-43
2021/08/17 04:07:54;;;;;;;25.02;15.73;;;;;;;;;;4994894;28;20044;-42
2021/08/17 04:10:20;;;;;;;16.17;9.35;;;;;;;;;;4994423;28;20070;-44
2021/08/17 04:12:46;;;;;;;13.98;4.72;;;;;;;;;;4994333;28;20042;-45
2021/08/17 04:15:13;;;;;;;8.50;5.10;;;;;;;;;;4994719;28;20403;-41
2021/08/17 04:17:39;;;;;;;23.83;11.05;;;;;;;;;;4994658;28;20121;-42
2021/08/17 04:20:08;;;;;;;18.13;5.82;;;;;;;;;;4994533;28;20598;-41
2021/08/17 04:22:35;;;;;;;18.98;11.15;;;;;;;;;;4994507;28;20023;-44
2021/08/17 04:25:01;;;;;;;15.98;6.53;;;;;;;;;;4994531;28;20022;-40
2021/08/17 04:27:27;;;;;;;27.75;12.63;;;;;;;;;;4994781;28;20030;-44
2021/08/17 04:29:53;;;;;;;17.65;8.40;;;;;;;;;;4994231;28;20475;-42
2021/08/17 04:32:19;;;;;;;20.55;9.02;;;;;;;;;;4994451;28;20044;-44
2021/08/17 04:34:45;;;;;;;12.20;7.63;;;;;;;;;;4994392;28;20093;-46
2021/08/17 04:37:11;;;;;;;12.75;4.85;;;;;;;;;;4994162;28;20064;-45
2021/08/17 04:39:37;;;;;;;6.60;3.90;;;;;;;;;;4994170;28;20089;-44
2021/08/17 04:42:04;;;;;;;13.55;4.38;;;;;;;;;;4994453;28;20034;-44
2021/08/17 04:44:30;;;;;;;4.95;3.00;;;;;;;;;;4994169;28;20382;-44
2021/08/17 04:46:56;;;;;;;11.07;3.40;;;;;;;;;;4994147;28;20033;-44
2021/08/17 04:49:22;;;;;;;12.27;3.05;;;;;;;;;;4994160;28;20482;-44
2021/08/17 04:51:48;;;;;;;7.40;2.75;;;;;;;;;;4993965;28;20117;-44
2021/08/17 04:54:14;;;;;;;9.70;3.22;;;;;;;;;;4993900;28;20479;-45
2021/08/17 04:56:40;;;;;;;8.75;3.63;;;;;;;;;;4993953;28;20031;-47
2021/08/17 04:59:06;;;;;;;33.22;13.15;;;;;;;;;;4993887;28;20177;-46
2021/08/17 05:01:33;;;;;;;21.58;11.30;;;;;;;;;;4993919;28;20072;-45
2021/08/17 05:03:59;;;;;;;23.85;11.60;;;;;;;;;;4994135;28;20418;-45
2021/08/17 05:06:25;;;;;;;35.38;19.30;;;;;;;;;;4993852;28;20081;-45
2021/08/17 05:08:51;;;;;;;11.55;6.05;;;;;;;;;;4993514;28;20474;-46
2021/08/17 05:11:17;;;;;;;11.13;4.25;;;;;;;;;;4993937;28;20089;-45
2021/08/17 05:13:43;;;;;;;10.82;5.28;;;;;;;;;;4993752;28;20031;-45
2021/08/17 05:16:11;;;;;;;8.05;4.25;;;;;;;;;;4993869;28;20097;-44
2021/08/17 05:18:37;;;;;;;11.75;4.13;;;;;;;;;;4993683;28;20069;-46
2021/08/17 05:21:03;;;;;;;8.35;4.20;;;;;;;;;;4993723;28;20433;-46
2021/08/17 05:23:30;;;;;;;11.00;4.50;;;;;;;;;;4993730;28;20026;-44
2021/08/17 05:25:56;;;;;;;11.95;3.78;;;;;;;;;;4996850;28;20152;-43
2021/08/17 05:28:23;;;;;;;7.68;3.80;;;;;;;;;;4997801;28;20030;-45
2021/08/17 05:30:49;;;;;;;12.10;3.80;;;;;;;;;;4997712;28;20378;-46
2021/08/17 05:33:16;;;;;;;8.63;3.67;;;;;;;;;;4997692;28;20038;-45
2021/08/17 05:35:43;;;;;;;6.65;3.72;;;;;;;;;;4997385;28;20565;-46
2021/08/17 05:38:09;;;;;;;11.18;3.90;;;;;;;;;;4997201;28;20060;-44
2021/08/17 05:40:35;;;;;;;9.80;3.65;;;;;;;;;;4997669;28;20056;-45
2021/08/17 05:43:03;;;;;;;9.20;3.60;;;;;;;;;;4997503;28;20029;-46
2021/08/17 05:45:29;;;;;;;9.73;3.72;;;;;;;;;;4997416;28;20101;-47
2021/08/17 05:47:55;;;;;;;14.80;3.80;;;;;;;;;;4997427;28;20541;-46
2021/08/17 05:50:22;;;;;;;10.18;3.78;;;;;;;;;;4997459;28;20041;-45
2021/08/17 05:52:48;;;;;;;11.95;3.92;;;;;;;;;;4996040;28;20097;-42
2021/08/17 05:55:14;;;;;;;10.52;4.10;;;;;;;;;;4997248;28;20030;-45
2021/08/17 05:57:40;;;;;;;15.98;4.15;;;;;;;;;;4997319;28;20033;-45
2021/08/17 06:00:09;;;;;;;9.35;3.70;;;;;;;;;;4997220;28;20459;-44
2021/08/17 06:02:36;;;;;;;9.48;3.50;;;;;;;;;;4997210;28;20054;-41
2021/08/17 06:05:02;;;;;;;10.30;3.67;;;;;;;;;;4996968;28;20022;-41
2021/08/17 06:07:28;;;;;;;8.75;3.72;;;;;;;;;;4997243;28;20033;-44
2021/08/17 06:09:54;;;;;;;29.27;4.00;;;;;;;;;;4996652;28;20125;-41
2021/08/17 06:12:20;;;;;;;11.15;3.50;;;;;;;;;;4996993;28;20121;-44
2021/08/17 06:14:46;;;;;;;8.93;3.15;;;;;;;;;;4996930;28;20375;-46
2021/08/17 06:17:12;;;;;;;14.30;3.80;;;;;;;;;;4996916;28;20158;-44
2021/08/17 06:19:38;;;;;;;7.55;3.30;;;;;;;;;;4996916;28;20033;-45
2021/08/17 06:22:04;;;;;;;6.70;3.28;;;;;;;;;;4996796;28;20057;-47
2021/08/17 06:24:30;;;;;;;10.32;4.00;;;;;;;;;;4996717;28;20054;-47
2021/08/17 06:26:56;;;;;;;18.98;4.10;;;;;;;;;;4996874;28;20035;-44
2021/08/17 06:29:23;;;;;;;6.47;3.20;;;;;;;;;;4996784;28;20062;-43
2021/08/17 06:31:49;;;;;;;11.73;3.60;;;;;;;;;;4996444;28;20061;-47
2021/08/17 06:34:15;;;;;;;9.40;3.55;;;;;;;;;;4996828;28;20022;-42
2021/08/17 06:36:42;;;;;;;8.00;2.95;;;;;;;;;;4995964;28;20026;-46
2021/08/17 06:39:08;;;;;;;10.95;3.00;;;;;;;;;;4996176;28;20483;-45
2021/08/17 06:41:35;;;;;;;7.60;2.83;;;;;;;;;;4996676;28;20390;-41
2021/08/17 06:44:02;;;;;;;7.70;3.15;;;;;;;;;;4996520;28;20058;-41
2021/08/17 06:46:28;;;;;;;7.30;3.15;;;;;;;;;;4996378;28;20022;-42
2021/08/17 06:48:54;;;;;;;9.43;3.55;;;;;;;;;;4996438;28;20093;-41
2021/08/17 06:51:23;;;;;;;6.47;2.60;;;;;;;;;;4996078;28;20034;-44
2021/08/17 06:53:49;;;;;;;10.60;2.90;;;;;;;;;;4996382;28;20049;-41
2021/08/17 06:56:17;;;;;;;5.78;3.15;;;;;;;;;;4996309;28;20026;-41
2021/08/17 06:58:48;;;;;;;7.78;2.75;;;;;;;;;;4996093;28;20029;-42
2021/08/17 07:01:14;;;;;;;7.38;2.97;;;;;;;;;;4995993;28;20028;-41
2021/08/17 07:03:40;;;;;;;14.05;3.08;;;;;;;;;;4996374;28;20065;-41
2021/08/17 07:06:06;;;;;;;10.55;3.08;;;;;;;;;;4995990;28;20046;-41
2021/08/17 07:08:32;;;;;;;9.73;2.90;;;;;;;;;;4995634;28;20030;-41
2021/08/17 07:10:58;;;;;;;5.35;2.80;;;;;;;;;;4995998;28;20545;-42
2021/08/17 07:13:27;;;;;;;7.75;3.70;;;;;;;;;;4995676;28;20038;-42
2021/08/17 07:15:56;;;;;;;7.88;3.40;;;;;;;;;;4995956;28;20022;-42
2021/08/17 07:18:26;;;;;;;6.15;2.78;;;;;;;;;;4995700;28;20526;-41
2021/08/17 07:20:53;;;;;;;10.80;3.00;;;;;;;;;;4995583;28;20026;-42
2021/08/17 07:23:19;;;;;;;7.43;2.40;;;;;;;;;;4995422;28;20560;-42
2021/08/17 07:25:45;;;;;;;13.90;3.20;;;;;;;;;;4995872;28;20038;-41
2021/08/17 07:28:11;;;;;;;14.68;3.35;;;;;;;;;;4995783;28;20069;-45
2021/08/17 07:30:38;;;;;;;11.07;3.00;;;;;;;;;;4995589;28;20534;-42
2021/08/17 07:33:04;;;;;;;13.70;2.97;;;;;;;;;;4995435;28;20118;-44
2021/08/17 07:35:30;;;;;;;17.08;3.30;;;;;;;;;;4995333;28;20022;-45
2021/08/17 07:37:56;;;;;;;14.32;2.80;;;;;;;;;;4995256;28;20538;-41
2021/08/17 07:40:23;;;;;;;10.80;3.22;;;;;;;;;;4995206;28;20026;-41
2021/08/17 07:42:49;;;;;;;7.30;3.38;;;;;;;;;;4995491;28;20446;-41
2021/08/17 07:45:16;;;;;;;8.73;2.80;;;;;;;;;;4995321;28;20133;-42
2021/08/17 07:47:42;;;;;;;26.02;13.43;;;;;;;;;;4994320;28;20109;-44
2021/08/17 07:50:09;;;;;;;16.00;5.03;;;;;;;;;;4995136;28;20026;-44
2021/08/17 07:52:36;;;;;;;15.70;4.75;;;;;;;;;;4993984;28;20194;-44
2021/08/17 07:55:05;;;;;;;23.42;13.45;;;;;;;;;;4993655;28;20025;-42
2021/08/17 07:57:31;;;;;;;9.57;5.45;;;;;;;;;;4993404;28;20525;-44
2021/08/17 07:59:57;;;;;;;20.67;4.10;;;;;;;;;;4993613;28;20105;-43
2021/08/17 08:02:24;;;;;;;12.55;2.90;;;;;;;;;;4994176;28;20026;-46
2021/08/17 08:04:50;;;;;;;9.02;3.25;;;;;;;;;;4993013;28;20023;-45
2021/08/17 08:07:16;;;;;;;8.13;2.90;;;;;;;;;;4993125;28;20030;-45
2021/08/17 08:09:42;;;;;;;7.45;2.97;;;;;;;;;;4993270;28;20050;-44
2021/08/17 08:12:10;;;;;;;4.53;2.35;;;;;;;;;;4993247;28;20045;-40
2021/08/17 08:14:39;;;;;;;7.95;2.90;;;;;;;;;;4993369;28;20394;-43
2021/08/17 08:17:05;;;;;;;9.77;3.17;;;;;;;;;;4993219;28;20054;-43
2021/08/17 08:19:31;;;;;;;7.65;1.95;;;;;;;;;;4993316;28;20014;-44
2021/08/17 08:21:57;;;;;;;8.00;2.42;;;;;;;;;;4993043;28;20446;-45
2021/08/17 08:24:26;;;;;;;9.48;2.78;;;;;;;;;;4993160;28;20098;-43
2021/08/17 08:26:52;;;;;;;7.35;2.22;;;;;;;;;;4993076;28;20028;-42
2021/08/17 08:29:18;;;;;;;5.90;2.28;;;;;;;;;;4993127;28;20459;-46
2021/08/17 08:31:44;;;;;;;7.75;2.30;;;;;;;;;;4992911;28;20088;-40
2021/08/17 08:34:10;;;;;;;9.38;2.45;;;;;;;;;;4993014;28;20036;-39
2021/08/17 08:36:36;;;;;;;9.10;2.30;;;;;;;;;;4992844;28;20027;-44
2021/08/17 08:39:02;;;;;;;8.77;2.58;;;;;;;;;;4992697;28;20058;-44
2021/08/17 08:41:28;;;;;;;8.70;2.42;;;;;;;;;;4992826;28;20034;-42
2021/08/17 08:43:55;;;;;;;17.05;2.80;;;;;;;;;;4992905;28;20097;-45
2021/08/17 08:46:21;;;;;;;11.05;2.40;;;;;;;;;;4992889;28;20101;-41
2021/08/17 08:48:54;;;;;;;13.55;2.58;;;;;;;;;;4992834;28;20050;-47
2021/08/17 08:51:21;;;;;;;16.30;2.47;;;;;;;;;;4992610;28;20022;-46
2021/08/17 08:53:48;;;;;;;8.02;2.08;;;;;;;;;;4992558;28;20040;-45
2021/08/17 08:56:14;;;;;;;19.33;2.42;;;;;;;;;;4992643;28;20089;-46
2021/08/17 08:58:44;;;;;;;9.02;2.60;;;;;;;;;;4992505;28;20064;-46
2021/08/17 09:01:11;;;;;;;7.63;2.10;;;;;;;;;;4990025;28;20525;-40
2021/08/17 09:03:44;;;;;;;12.13;2.80;;;;;;;;;;4992589;28;20026;-39
2021/08/17 09:06:16;;;;;;;13.50;2.42;;;;;;;;;;4992444;28;20032;-42
2021/08/17 09:08:42;;;;;;;12.98;2.90;;;;;;;;;;4992282;28;20042;-44
2021/08/17 09:11:15;;;;;;;15.85;3.90;;;;;;;;;;4992864;28;20375;-44
2021/08/17 09:13:41;;;;;;;13.18;3.20;;;;;;;;;;4992356;28;20402;-44
2021/08/17 09:16:26;;;;;;;9.00;2.70;;;;;;;;;;4992466;28;20073;-43
2021/08/17 09:18:53;;;;;;;15.88;2.70;;;;;;;;;;4990915;28;20033;-41
2021/08/17 09:21:35;;;;;;;6.93;2.38;;;;;;;;;;4992441;28;20030;-40
2021/08/17 09:24:21;;;;;;;13.32;3.67;;;;;;;;;;4992095;28;20030;-41
2021/08/17 09:26:55;;;;;;;6.13;2.10;;;;;;;;;;4990095;28;20152;-45
2021/08/17 09:29:26;;;;;;;9.02;1.92;;;;;;;;;;4992250;28;20030;-43
2021/08/17 09:31:53;;;;;;;8.73;2.40;;;;;;;;;;4992539;28;20022;-45
2021/08/17 09:34:24;;;;;;;9.80;2.65;;;;;;;;;;4992452;28;20033;-40
2021/08/17 09:36:50;;;;;;;;;;;;;;;;;;4990722;28;20026;-41
2021/08/17 09:39:33;;;;;;;9.77;3.20;;;;;;;;;;4991903;28;19916;-40
2021/08/17 09:42:09;;;;;;;43.15;23.95;;;;;;;;;;4991259;28;20034;-40
2021/08/17 09:44:36;;;;;;;48.35;33.97;;;;;;;;;;4992139;28;20142;-42
2021/08/17 09:47:02;;;;;;;55.25;36.10;;;;;;;;;;4992106;28;20037;-45
2021/08/17 09:49:30;;;;;;;24.30;12.90;;;;;;;;;;4992414;28;20034;-46
2021/08/17 09:51:58;;;;;;;29.15;14.85;;;;;;;;;;4991864;28;20076;-46
2021/08/17 09:54:25;;;;;;;102.63;51.03;;;;;;;;;;4991832;28;20117;-41
2021/08/17 09:56:58;;;;;;;46.78;26.40;;;;;;;;;;4992140;28;20029;-46
2021/08/17 09:59:25;;;;;;;68.95;51.55;;;;;;;;;;4992003;28;20150;-44
2021/08/17 10:01:52;;;;;;;23.83;12.23;;;;;;;;;;4991996;28;20102;-45
2021/08/17 10:04:18;;;;;;;19.17;9.02;;;;;;;;;;4993076;28;20033;-42
2021/08/17 10:06:44;;;;;;;11.82;5.80;;;;;;;;;;4993276;28;20019;-42
2021/08/17 10:09:15;;;;;;;7.18;3.40;;;;;;;;;;4993062;28;20069;-42
2021/08/17 10:11:45;;;;;;;31.75;17.52;;;;;;;;;;4995722;28;20538;-42
2021/08/17 10:14:11;;;;;;;83.90;40.03;;;;;;;;;;4996860;28;20038;-43
2021/08/17 10:16:37;;;;;;;50.05;26.27;;;;;;;;;;4996722;28;20471;-43
2021/08/17 10:19:04;;;;;;;30.88;13.60;;;;;;;;;;4996746;28;20037;-43
2021/08/17 10:21:31;;;;;;;37.65;26.90;;;;;;;;;;4996239;28;20542;-41
2021/08/17 10:23:57;;;;;;;32.47;9.98;;;;;;;;;;4996472;28;20406;-41
2021/08/17 10:26:26;;;;;;;55.15;29.15;;;;;;;;;;4996614;28;20032;-42
2021/08/17 10:28:52;;;;;;;45.72;22.73;;;;;;;;;;4995471;28;20084;-41
2021/08/17 10:31:18;;;;;;;52.53;34.05;;;;;;;;;;4995205;28;20045;-41
2021/08/17 10:33:50;;;;;;;44.50;22.25;;;;;;;;;;4996289;28;20041;-43
2021/08/17 10:36:33;;;;;;;20.88;6.82;;;;;;;;;;4996212;28;20110;-41
2021/08/17 10:39:00;;;;;;;18.08;4.20;;;;;;;;;;4996324;28;20030;-42
2021/08/17 10:41:30;;;;;;;18.80;3.78;;;;;;;;;;4996374;28;20105;-43
2021/08/17 10:43:56;;;;;;;49.50;9.82;;;;;;;;;;4996354;28;20045;-42
2021/08/17 10:46:43;;;;;;;25.17;5.25;;;;;;;;;;4996190;28;20387;-42
2021/08/17 10:49:28;;;;;;;16.15;3.05;;;;;;;;;;4996277;28;20101;-42
2021/08/17 10:51:55;;;;;;;19.73;3.30;;;;;;;;;;4996076;28;20513;-45
2021/08/17 10:54:23;;;;;;;8.00;2.70;;;;;;;;;;4996064;28;20038;-43
2021/08/17 10:56:49;;;;;;;12.02;2.92;;;;;;;;;;4996087;28;20019;-43
2021/08/17 10:59:35;;;;;;;13.20;2.50;;;;;;;;;;4995950;28;20035;-40
2021/08/17 11:02:02;;;;;;;13.70;2.72;;;;;;;;;;4996008;28;20025;-42
2021/08/17 11:04:48;;;;;;;14.93;2.80;;;;;;;;;;4995896;28;20018;-41
2021/08/17 11:07:23;;;;;;;8.45;2.38;;;;;;;;;;4995750;28;20015;-43
2021/08/17 11:09:50;;;;;;;154.93;121.50;;;;;;;;;;4994132;28;20114;-42
2021/08/17 11:12:18;;;;;;;150.48;107.70;;;;;;;;;;4994367;28;20034;-42
2021/08/17 11:14:45;;;;;;;109.00;75.53;;;;;;;;;;4994391;28;20088;-42
2021/08/17 11:17:15;;;;;;;56.50;35.92;;;;;;;;;;4994348;28;20026;-43
2021/08/17 11:19:46;;;;;;;23.17;12.30;;;;;;;;;;4994273;28;20105;-43
2021/08/17 11:22:13;;;;;;;12.60;5.65;;;;;;;;;;4993984;28;20026;-41
2021/08/17 11:24:40;;;;;;;20.67;14.88;;;;;;;;;;4994141;28;20022;-41
2021/08/17 11:27:12;;;;;;;38.38;17.17;;;;;;;;;;4994198;28;20490;-42
2021/08/17 11:29:45;;;;;;;38.35;21.52;;;;;;;;;;4994248;28;20023;-41
2021/08/17 11:32:13;;;;;;;42.63;26.30;;;;;;;;;;4994307;28;20479;-42
2021/08/17 11:34:40;;;;;;;39.63;16.23;;;;;;;;;;4994040;28;20101;-42
2021/08/17 11:37:10;;;;;;;34.65;22.25;;;;;;;;;;4993786;28;20375;-43
2021/08/17 11:39:42;;;;;;;16.10;7.65;;;;;;;;;;4994039;28;20030;-43
2021/08/17 11:42:27;;;;;;;14.40;7.85;;;;;;;;;;4994769;28;20400;-42
2021/08/17 11:45:00;;;;;;;44.88;5.30;;;;;;;;;;4991437;28;20360;-39
2021/08/17 11:47:29;;;;;;;49.95;5.55;;;;;;;;;;4991856;28;20049;-44
2021/08/17 11:49:56;;;;;;;33.15;3.40;;;;;;;;;;4994044;28;20022;-42
2021/08/17 11:52:24;;;;;;;20.13;2.95;;;;;;;;;;4993611;28;20522;-44
2021/08/17 11:54:50;;;;;;;6.00;1.90;;;;;;;;;;4993556;28;20029;-41
2021/08/17 11:57:28;;;;;;;19.40;2.03;;;;;;;;;;4993758;28;20025;-44
2021/08/17 11:59:54;;;;;;;18.77;1.90;;;;;;;;;;4992040;28;20374;-45
2021/08/17 12:02:27;;;;;;;11.23;4.50;;;;;;;;;;4993392;28;20045;-44
2021/08/17 12:04:55;;;;;;;13.82;6.10;;;;;;;;;;4992059;28;20029;-45
2021/08/17 12:07:22;;;;;;;58.85;33.50;;;;;;;;;;4993691;28;20034;-42
2021/08/17 12:09:48;;;;;;;65.45;45.30;;;;;;;;;;4992965;28;20101;-44
2021/08/17 12:12:15;;;;;;;23.77;14.55;;;;;;;;;;4993210;28;20157;-46
2021/08/17 12:14:42;;;;;;;31.70;20.63;;;;;;;;;;4993325;28;20030;-45
2021/08/17 12:17:09;;;;;;;13.50;5.80;;;;;;;;;;4992994;28;20018;-40
2021/08/17 12:19:36;;;;;;;14.70;5.95;;;;;;;;;;4993214;28;20030;-44
2021/08/17 12:22:03;;;;;;;12.85;6.97;;;;;;;;;;4992507;28;20022;-41
2021/08/17 12:24:33;;;;;;;35.13;26.90;;;;;;;;;;4993139;28;20315;-41
2021/08/17 12:27:00;;;;;;;33.28;20.55;;;;;;;;;;4993049;28;20371;-41
2021/08/17 12:29:36;;;;;;;22.92;14.68;;;;;;;;;;4992777;28;20390;-41
2021/08/17 12:32:14;;;;;;;45.35;30.65;;;;;;;;;;4992753;28;21033;-45
2021/08/17 12:34:47;;;;;;;23.13;15.77;;;;;;;;;;4992506;28;20022;-43
2021/08/17 12:37:28;;;;;;;39.65;23.08;;;;;;;;;;4993128;28;20460;-45
2021/08/17 12:39:55;;;;;;;25.88;17.08;;;;;;;;;;4992665;28;20030;-45
2021/08/17 12:42:21;;;;;;;35.03;26.38;;;;;;;;;;4992653;28;20145;-42
2021/08/17 12:44:48;;;;;;;37.92;25.35;;;;;;;;;;4992818;28;20030;-43
2021/08/17 12:47:17;;;;;;;34.63;20.63;;;;;;;;;;4992603;28;20035;-41
2021/08/17 12:49:43;;;;;;;38.50;25.75;;;;;;;;;;4992677;28;20034;-42
2021/08/17 12:52:18;;;;;;;47.88;30.95;;;;;;;;;;4992651;28;20014;-41
2021/08/17 12:54:44;;;;;;;25.38;9.68;;;;;;;;;;4990908;28;20089;-40
2021/08/17 12:57:10;;;;;;;14.02;8.82;;;;;;;;;;4992589;28;20050;-42
2021/08/17 12:59:36;;;;;;;16.48;4.53;;;;;;;;;;4992445;28;20038;-41
2021/08/17 13:02:03;;;;;;;6.72;2.65;;;;;;;;;;4992506;28;20022;-41
2021/08/17 13:04:29;;;;;;;6.72;2.15;;;;;;;;;;4992887;28;20033;-42
2021/08/17 13:06:55;;;;;;;5.18;1.48;;;;;;;;;;4992656;28;20411;-41
2021/08/17 13:09:21;;;;;;;13.10;2.05;;;;;;;;;;4992212;28;20050;-43
2021/08/17 13:11:47;;;;;;;4.13;1.25;;;;;;;;;;4992278;28;20109;-42
2021/08/17 13:14:13;;;;;;;54.25;37.67;;;;;;;;;;4992306;28;20066;-44
2021/08/17 13:16:39;;;;;;;14.60;2.88;;;;;;;;;;4992557;28;20023;-42
2021/08/17 13:19:05;;;;;;;51.42;36.05;;;;;;;;;;4992475;28;20493;-43
2021/08/17 13:21:31;;;;;;;22.40;13.50;;;;;;;;;;4992465;28;20034;-43
2021/08/17 13:24:00;;;;;;;40.08;24.25;;;;;;;;;;4992846;28;20034;-43
2021/08/17 13:26:28;;;;;;;19.40;10.63;;;;;;;;;;4991752;28;20494;-42
2021/08/17 13:28:54;;;;;;;10.93;6.65;;;;;;;;;;4992291;28;20487;-43
2021/08/17 13:31:20;;;;;;;10.27;5.20;;;;;;;;;;4992354;28;20419;-44
2021/08/17 13:33:46;;;;;;;11.02;6.47;;;;;;;;;;4992201;28;20035;-42
2021/08/17 13:36:12;;;;;;;12.02;4.60;;;;;;;;;;4992290;28;20018;-43
2021/08/17 13:38:38;;;;;;;6.68;2.13;;;;;;;;;;4992001;28;20030;-44
2021/08/17 13:41:04;;;;;;;4.28;2.13;;;;;;;;;;4992258;28;20486;-43
2021/08/17 13:43:31;;;;;;;25.70;17.55;;;;;;;;;;4992063;28;20030;-41
2021/08/17 13:46:00;;;;;;;32.42;20.48;;;;;;;;;;4993668;28;20015;-41
2021/08/17 13:48:26;;;;;;;16.55;12.60;;;;;;;;;;4993610;28;20085;-41
2021/08/17 13:50:52;;;;;;;14.95;11.18;;;;;;;;;;4995945;28;20022;-42
2021/08/17 13:53:18;;;;;;;39.85;24.75;;;;;;;;;;4995561;28;20066;-43
2021/08/17 13:55:45;;;;;;;26.83;15.18;;;;;;;;;;4995817;28;20081;-42
2021/08/17 13:58:13;;;;;;;17.58;5.30;;;;;;;;;;4995544;28;20023;-43
2021/08/17 14:00:44;;;;;;;30.33;21.65;;;;;;;;;;4995569;28;20025;-42
2021/08/17 14:03:10;;;;;;;24.60;15.77;;;;;;;;;;4995788;28;20053;-41
2021/08/17 14:05:36;;;;;;;112.55;88.47;;;;;;;;;;4994210;28;20386;-42
2021/08/17 14:08:02;;;;;;;100.07;69.78;;;;;;;;;;4995148;28;20034;-42
2021/08/17 14:10:28;;;;;;;60.92;43.50;;;;;;;;;;4995283;28;20050;-42
2021/08/17 14:12:54;;;;;;;16.95;11.40;;;;;;;;;;4995369;28;20392;-40
2021/08/17 14:15:21;;;;;;;13.68;6.70;;;;;;;;;;4995535;28;20022;-40
2021/08/17 14:17:47;;;;;;;35.33;20.40;;;;;;;;;;4995472;28;20414;-40
2021/08/17 14:20:15;;;;;;;24.60;13.95;;;;;;;;;;4995281;28;20037;-39
2021/08/17 14:22:41;;;;;;;15.88;6.35;;;;;;;;;;4995162;28;20093;-40
2021/08/17 14:25:07;;;;;;;33.83;23.13;;;;;;;;;;4995827;28;20029;-40
2021/08/17 14:27:33;;;;;;;23.02;13.82;;;;;;;;;;4996527;28;20101;-39
2021/08/17 14:30:04;;;;;;;10.63;3.78;;;;;;;;;;4996718;28;20117;-43
2021/08/17 14:32:30;;;;;;;15.43;6.45;;;;;;;;;;4996279;28;20036;-41